Time;durP1;ratioP1;P1;durP2;ratioP2;P2;SDS_P1;SDS_P2;PMS_P1;PMS_P2;Temp;Humidity;BMP_temperature;BMP_pressure;BME280_temperature;BME280_humidity;BME280_pressure;Samples;Min_cycle;Max_cycle;Signal;HPM_P1;HPM_P2
2021/01/18 00:00:33;;;;;;;68.43;28.60;;;0.50;99.90;;;;;;5016245;28;20466;-70
2021/01/18 00:03:03;;;;;;;68.67;28.90;;;0.40;99.90;;;;;;5001070;28;20057;-70
2021/01/18 00:05:34;;;;;;;68.07;27.97;;;0.50;99.90;;;;;;4995099;28;20453;-70
2021/01/18 00:08:03;;;;;;;70.77;29.00;;;0.50;99.90;;;;;;5021629;28;20412;-72
2021/01/18 00:10:29;;;;;;;74.87;30.20;;;0.40;99.90;;;;;;5018441;28;20455;-73
2021/01/18 00:12:57;;;;;;;72.47;30.23;;;0.50;99.90;;;;;;5013270;28;20046;-70
2021/01/18 00:15:26;;;;;;;70.40;28.80;;;0.50;99.90;;;;;;5012042;28;20060;-73
2021/01/18 00:17:54;;;;;;;69.97;27.63;;;0.50;99.90;;;;;;5008776;28;20042;-73
2021/01/18 00:20:21;;;;;;;68.13;28.53;;;0.40;99.90;;;;;;5009161;28;20107;-70
2021/01/18 00:22:50;;;;;;;72.10;29.30;;;0.40;99.90;;;;;;5007689;28;20054;-70
2021/01/18 00:25:18;;;;;;;66.90;29.07;;;0.40;99.90;;;;;;5007570;28;20378;-71
2021/01/18 00:27:45;;;;;;;77.87;29.57;;;0.40;99.90;;;;;;5001712;28;20046;-71
2021/01/18 00:30:14;;;;;;;70.87;29.83;;;0.50;99.90;;;;;;5012262;28;20057;-71
2021/01/18 00:32:41;;;;;;;77.40;30.93;;;0.50;99.90;;;;;;5016106;28;20061;-71
2021/01/18 00:35:09;;;;;;;69.67;29.30;;;0.60;99.90;;;;;;5013362;28;20045;-70
2021/01/18 00:37:43;;;;;;;70.30;28.23;;;0.60;99.90;;;;;;5000596;28;20500;-71
2021/01/18 00:40:12;;;;;;;74.93;31.33;;;0.60;99.90;;;;;;5001378;28;20092;-71
2021/01/18 00:42:39;;;;;;;72.50;31.00;;;0.50;99.90;;;;;;5003340;28;20049;-71
2021/01/18 00:45:08;;;;;;;76.20;32.70;;;0.50;99.90;;;;;;5006073;28;20058;-71
2021/01/18 00:47:40;;;;;;;76.50;31.87;;;0.50;99.90;;;;;;5023623;28;20046;-71
2021/01/18 00:50:08;;;;;;;76.93;32.53;;;0.50;99.90;;;;;;5051801;28;20040;-71
2021/01/18 00:52:34;;;;;;;74.23;30.47;;;0.50;99.90;;;;;;5050802;28;20044;-71
2021/01/18 00:55:01;;;;;;;77.77;31.33;;;0.50;99.90;;;;;;5034157;28;20083;-71
2021/01/18 00:57:34;;;;;;;79.93;32.77;;;0.50;99.90;;;;;;5027724;28;20303;-71
2021/01/18 01:00:01;;;;;;;87.87;32.23;;;0.60;99.90;;;;;;5013348;28;20053;-72
2021/01/18 01:02:28;;;;;;;75.77;31.30;;;0.50;99.90;;;;;;5007963;28;20050;-71
2021/01/18 01:04:54;;;;;;;72.40;32.17;;;0.60;99.90;;;;;;5008141;28;20041;-71
2021/01/18 01:07:21;;;;;;;78.27;32.97;;;0.50;99.90;;;;;;5008323;28;20049;-71
2021/01/18 01:09:47;;;;;;;83.17;31.30;;;0.60;99.90;;;;;;5008662;28;20532;-71
2021/01/18 01:12:14;;;;;;;75.57;31.63;;;0.60;99.90;;;;;;5007621;28;20062;-71
2021/01/18 01:14:41;;;;;;;78.00;31.07;;;0.60;99.90;;;;;;5008084;28;20335;-71
2021/01/18 01:17:11;;;;;;;73.87;31.10;;;0.60;99.90;;;;;;5014494;28;20049;-71
2021/01/18 01:19:37;;;;;;;77.57;31.37;;;0.70;99.90;;;;;;5007993;28;20588;-71
2021/01/18 01:22:04;;;;;;;80.03;30.60;;;0.70;99.90;;;;;;5007903;28;20045;-72
2021/01/18 01:24:31;;;;;;;77.50;31.70;;;0.70;99.90;;;;;;5007181;28;20049;-71
2021/01/18 01:26:57;;;;;;;71.67;29.60;;;0.70;99.90;;;;;;5008639;28;20053;-71
2021/01/18 01:29:24;;;;;;;73.70;30.90;;;0.70;99.90;;;;;;5008164;28;20429;-71
2021/01/18 01:31:51;;;;;;;82.37;31.27;;;0.80;99.90;;;;;;5007933;28;20112;-71
2021/01/18 01:34:18;;;;;;;78.67;30.73;;;0.80;99.90;;;;;;5007134;28;20104;-72
2021/01/18 01:36:44;;;;;;;86.40;32.03;;;0.80;99.90;;;;;;5008290;28;20045;-71
2021/01/18 01:39:11;;;;;;;86.47;30.57;;;0.80;99.90;;;;;;5007275;28;20057;-71
2021/01/18 01:41:37;;;;;;;96.50;33.27;;;0.80;99.90;;;;;;5008123;28;20050;-71
2021/01/18 01:44:04;;;;;;;88.53;34.50;;;0.70;99.90;;;;;;5007278;28;20053;-71
2021/01/18 01:46:32;;;;;;;94.53;34.43;;;0.70;99.90;;;;;;5012838;28;20045;-71
2021/01/18 01:48:59;;;;;;;84.40;33.03;;;0.70;99.90;;;;;;5024087;28;20057;-71
2021/01/18 01:51:28;;;;;;;84.80;32.90;;;0.70;99.90;;;;;;5028101;28;20053;-71
2021/01/18 01:53:56;;;;;;;94.20;34.40;;;0.80;99.90;;;;;;5019664;28;20054;-71
2021/01/18 01:56:23;;;;;;;90.03;36.10;;;0.70;99.90;;;;;;5007460;28;20046;-71
2021/01/18 01:58:52;;;;;;;99.90;36.23;;;0.70;99.90;;;;;;5007652;28;20054;-72
2021/01/18 02:01:21;;;;;;;86.73;35.60;;;0.70;99.90;;;;;;5007189;28;20057;-71
2021/01/18 02:03:51;;;;;;;90.93;34.07;;;0.70;99.90;;;;;;5006073;28;20543;-72
2021/01/18 02:06:19;;;;;;;88.50;34.57;;;0.70;99.90;;;;;;5006708;28;20050;-72
2021/01/18 02:08:46;;;;;;;94.70;34.27;;;0.70;99.90;;;;;;5007016;28;20511;-71
2021/01/18 02:11:14;;;;;;;90.33;35.63;;;0.70;99.90;;;;;;5007066;28;20081;-72
2021/01/18 02:14:02;;;;;;;96.83;36.10;;;0.70;99.90;;;;;;5006332;28;20451;-72
2021/01/18 02:16:34;;;;;;;98.33;36.33;;;0.80;99.90;;;;;;5018837;28;20049;-72
2021/01/18 02:19:40;;;;;;;92.67;36.87;;;0.70;99.90;;;;;;5017204;28;20049;-72
2021/01/18 02:22:37;;;;;;;93.60;35.20;;;0.70;99.90;;;;;;5006478;28;20408;-73
2021/01/18 02:25:16;;;;;;;94.80;36.77;;;0.80;99.90;;;;;;5006671;28;20041;-72
2021/01/18 02:28:18;;;;;;;99.43;36.83;;;0.80;99.90;;;;;;5007300;28;20208;-72
2021/01/18 02:31:28;;;;;;;97.43;37.43;;;0.80;99.90;;;;;;5003145;28;20048;-72
2021/01/18 02:34:31;;;;;;;90.47;35.07;;;0.90;99.90;;;;;;4980335;28;20054;-71
2021/01/18 02:37:13;;;;;;;93.97;35.47;;;0.90;99.90;;;;;;5001801;28;20736;-71
2021/01/18 02:39:50;;;;;;;93.70;36.03;;;0.90;99.90;;;;;;5004564;28;20045;-71
2021/01/18 02:42:22;;;;;;;91.82;36.80;;;0.80;99.90;;;;;;5007210;28;20514;-71
2021/01/18 02:44:56;;;;;;;94.70;34.90;;;0.80;99.90;;;;;;5005849;28;20042;-71
2021/01/18 02:47:25;;;;;;;93.67;34.97;;;0.90;99.90;;;;;;5005420;28;20515;-71
2021/01/18 02:49:54;;;;;;;97.50;36.87;;;0.90;99.90;;;;;;5007298;28;20061;-72
2021/01/18 02:52:21;;;;;;;96.27;36.47;;;0.90;99.90;;;;;;5007756;28;20057;-71
2021/01/18 02:54:48;;;;;;;92.30;35.93;;;0.90;99.90;;;;;;5011972;28;20056;-72
2021/01/18 02:57:16;;;;;;;93.03;36.40;;;0.90;99.90;;;;;;5008031;28;20046;-73
2021/01/18 02:59:44;;;;;;;95.07;36.90;;;1.00;99.90;;;;;;5007869;28;20104;-71
2021/01/18 03:02:32;;;;;;;94.00;35.70;;;1.00;99.90;;;;;;5005560;28;20050;-72
2021/01/18 03:05:18;;;;;;;89.40;37.07;;;1.00;99.90;;;;;;5002267;28;20049;-71
2021/01/18 03:07:56;;;;;;;94.18;35.63;;;1.00;99.90;;;;;;5011155;28;20516;-72
2021/01/18 03:10:29;;;;;;;92.57;36.10;;;1.10;99.90;;;;;;5011204;28;20436;-71
2021/01/18 03:13:00;;;;;;;96.47;35.93;;;1.10;99.90;;;;;;5009924;28;20053;-72
2021/01/18 03:15:31;;;;;;;89.57;34.73;;;1.00;99.90;;;;;;5007905;28;20052;-72
2021/01/18 03:18:02;;;;;;;84.10;33.57;;;1.10;99.90;;;;;;5011340;28;20148;-72
2021/01/18 03:20:29;;;;;;;97.70;37.17;;;1.10;99.90;;;;;;5009384;28;20072;-72
2021/01/18 03:23:02;;;;;;;90.20;36.80;;;1.10;99.90;;;;;;5009998;28;20050;-72
2021/01/18 03:25:29;;;;;;;98.17;36.13;;;1.10;99.90;;;;;;5008769;28;20543;-72
2021/01/18 03:27:59;;;;;;;98.77;36.03;;;1.30;99.90;;;;;;5011886;28;20041;-73
2021/01/18 03:30:27;;;;;;;86.83;35.30;;;1.20;99.90;;;;;;5008187;28;20050;-72
2021/01/18 03:32:55;;;;;;;91.67;36.00;;;1.20;99.90;;;;;;5008171;28;20488;-72
2021/01/18 03:35:23;;;;;;;89.37;36.17;;;1.20;99.90;;;;;;5009807;28;20053;-72
2021/01/18 03:37:54;;;;;;;92.83;34.80;;;1.30;99.90;;;;;;5008730;28;20057;-72
2021/01/18 03:40:23;;;;;;;88.27;35.37;;;1.30;99.90;;;;;;5010766;28;20068;-73
2021/01/18 03:42:54;;;;;;;94.73;36.17;;;1.30;99.90;;;;;;5010689;28;20052;-72
2021/01/18 03:45:20;;;;;;;91.17;37.10;;;1.30;99.90;;;;;;5011254;28;20055;-72
2021/01/18 03:47:47;;;;;;;91.03;35.37;;;1.30;99.90;;;;;;5011583;28;20467;-73
2021/01/18 03:50:14;;;;;;;93.00;36.83;;;1.30;99.90;;;;;;5011486;28;20054;-71
2021/01/18 03:52:40;;;;;;;93.47;34.63;;;1.30;99.90;;;;;;5009163;28;20069;-72
2021/01/18 03:55:09;;;;;;;91.97;37.60;;;1.40;99.90;;;;;;5008925;28;20504;-72
2021/01/18 03:57:37;;;;;;;94.17;37.90;;;1.40;99.90;;;;;;5007787;28;20127;-72
2021/01/18 04:00:06;;;;;;;98.47;35.83;;;1.40;99.90;;;;;;4999762;28;20042;-72
2021/01/18 04:02:32;;;;;;;90.53;36.07;;;1.40;99.90;;;;;;5006529;28;20424;-72
2021/01/18 04:04:59;;;;;;;91.53;35.30;;;1.40;99.90;;;;;;5007861;28;20057;-72
2021/01/18 04:07:26;;;;;;;90.00;36.03;;;1.40;99.90;;;;;;5008330;28;20081;-72
2021/01/18 04:09:52;;;;;;;88.13;35.60;;;1.40;99.90;;;;;;5008729;28;20038;-72
2021/01/18 04:12:19;;;;;;;96.30;37.53;;;1.50;99.90;;;;;;5009332;28;20054;-72
2021/01/18 04:14:46;;;;;;;90.63;35.70;;;1.50;99.90;;;;;;5012317;28;20046;-72
2021/01/18 04:17:13;;;;;;;88.67;34.87;;;1.50;99.90;;;;;;5013210;28;20050;-72
2021/01/18 04:19:40;;;;;;;68.13;28.57;;;1.40;99.90;;;;;;5007851;28;20046;-72
2021/01/18 04:22:06;;;;;;;74.30;31.03;;;1.60;99.90;;;;;;5007141;28;20046;-72
2021/01/18 04:24:33;;;;;;;71.43;29.37;;;1.80;99.90;;;;;;5005968;28;20046;-73
2021/01/18 04:27:00;;;;;;;67.90;29.20;;;1.70;99.90;;;;;;5006967;28;20038;-72
2021/01/18 04:29:27;;;;;;;59.93;24.77;;;1.70;99.90;;;;;;5006752;28;20042;-72
2021/01/18 04:31:54;;;;;;;66.00;27.77;;;1.80;99.90;;;;;;5006790;28;20225;-72
2021/01/18 04:34:21;;;;;;;68.73;27.20;;;1.80;99.90;;;;;;5005604;28;20466;-72
2021/01/18 04:36:48;;;;;;;64.20;27.43;;;1.70;99.90;;;;;;5007009;28;20068;-72
2021/01/18 04:39:15;;;;;;;67.93;28.70;;;1.70;99.90;;;;;;5007019;28;20061;-72
2021/01/18 04:41:43;;;;;;;67.13;25.77;;;1.70;99.90;;;;;;5006503;28;20052;-72
2021/01/18 04:44:12;;;;;;;67.07;28.27;;;1.80;99.90;;;;;;5005192;28;20046;-72
2021/01/18 04:46:40;;;;;;;69.43;27.10;;;1.80;99.90;;;;;;5009667;28;20056;-72
2021/01/18 04:49:08;;;;;;;62.83;28.37;;;1.80;99.90;;;;;;5006894;28;20078;-73
2021/01/18 04:51:42;;;;;;;61.67;26.70;;;1.80;99.90;;;;;;5006557;28;20037;-72
2021/01/18 04:54:13;;;;;;;66.23;27.90;;;2.00;99.90;;;;;;5005859;28;20050;-72
2021/01/18 04:57:11;;;;;;;67.87;26.73;;;1.90;99.90;;;;;;5005859;28;20503;-71
2021/01/18 04:59:43;;;;;;;67.65;27.63;;;1.80;99.90;;;;;;4998828;28;20524;-71
2021/01/18 05:02:16;;;;;;;62.07;26.50;;;1.80;99.90;;;;;;5003294;28;20096;-71
2021/01/18 05:04:45;;;;;;;64.73;26.80;;;1.80;99.90;;;;;;5005922;28;20046;-71
2021/01/18 05:07:48;;;;;;;68.07;27.07;;;1.80;99.90;;;;;;5003689;28;20057;-71
2021/01/18 05:10:27;;;;;;;71.37;27.67;;;1.80;99.90;;;;;;4993400;28;20054;-71
2021/01/18 05:13:01;;;;;;;70.40;30.33;;;1.80;99.90;;;;;;5002300;28;20179;-71
2021/01/18 05:15:27;;;;;;;73.10;30.13;;;1.80;99.90;;;;;;5005054;28;20042;-71
2021/01/18 05:17:59;;;;;;;73.67;30.17;;;1.70;99.90;;;;;;5006724;28;20523;-72
2021/01/18 05:20:27;;;;;;;73.67;29.97;;;1.60;99.90;;;;;;5006458;28;20107;-71
2021/01/18 05:22:55;;;;;;;73.43;28.47;;;1.60;99.90;;;;;;5004142;28;20049;-71
2021/01/18 05:25:22;;;;;;;86.40;33.63;;;1.60;99.90;;;;;;5006305;28;20141;-71
2021/01/18 05:28:06;;;;;;;77.63;31.47;;;1.60;99.90;;;;;;5003008;28;20041;-71
2021/01/18 05:30:34;;;;;;;88.03;31.77;;;1.60;99.90;;;;;;5003738;28;20519;-71
2021/01/18 05:33:06;;;;;;;75.17;29.87;;;1.60;99.90;;;;;;5004506;28;20045;-71
2021/01/18 05:35:34;;;;;;;77.87;29.07;;;1.70;99.90;;;;;;5003930;28;20496;-71
2021/01/18 05:38:03;;;;;;;77.93;31.00;;;1.70;99.90;;;;;;5005852;28;20045;-72
2021/01/18 05:40:35;;;;;;;68.33;28.73;;;1.70;99.90;;;;;;5003103;28;20056;-71
2021/01/18 05:43:02;;;;;;;71.83;30.23;;;1.70;99.90;;;;;;5004070;28;20046;-71
2021/01/18 05:45:31;;;;;;;71.47;29.90;;;1.70;99.90;;;;;;5002593;28;20132;-72
2021/01/18 05:47:59;;;;;;;73.83;27.93;;;1.70;99.90;;;;;;5005454;28;20050;-71
2021/01/18 05:50:26;;;;;;;74.23;30.00;;;1.70;99.90;;;;;;5006728;28;20056;-71
2021/01/18 05:52:54;;;;;;;74.20;30.00;;;1.70;99.90;;;;;;5006079;28;20054;-71
2021/01/18 05:55:21;;;;;;;70.07;29.23;;;1.70;99.90;;;;;;5007979;28;20050;-71
2021/01/18 05:57:50;;;;;;;75.97;30.07;;;1.70;99.90;;;;;;5001907;28;20136;-71
2021/01/18 06:00:28;;;;;;;69.83;26.67;;;1.70;99.90;;;;;;5007325;28;20463;-71
2021/01/18 06:02:56;;;;;;;63.07;26.17;;;1.80;99.90;;;;;;5004580;28;20050;-72
2021/01/18 06:05:28;;;;;;;54.33;21.07;;;2.20;99.90;;;;;;5007171;28;20065;-71
2021/01/18 06:08:08;;;;;;;66.87;27.90;;;2.00;99.90;;;;;;5007102;28;20046;-71
2021/01/18 06:10:35;;;;;;;64.33;26.37;;;1.90;99.90;;;;;;5004417;28;20148;-71
2021/01/18 06:13:02;;;;;;;59.67;25.57;;;1.80;99.90;;;;;;5005802;28;20041;-71
2021/01/18 06:15:29;;;;;;;65.43;26.13;;;1.80;99.90;;;;;;5005881;28;20049;-71
2021/01/18 06:17:58;;;;;;;63.80;25.23;;;1.70;99.90;;;;;;5006749;28;20053;-71
2021/01/18 06:20:26;;;;;;;63.03;26.03;;;1.70;99.90;;;;;;5006300;28;20061;-72
2021/01/18 06:22:54;;;;;;;76.53;29.07;;;1.90;99.90;;;;;;5003353;28;20378;-72
2021/01/18 06:25:22;;;;;;;71.13;26.53;;;2.00;99.90;;;;;;5005974;28;20500;-71
2021/01/18 06:27:50;;;;;;;58.63;23.97;;;2.00;99.90;;;;;;5008296;28;20057;-71
2021/01/18 06:30:22;;;;;;;49.23;21.00;;;2.10;99.90;;;;;;5008141;28;20431;-72
2021/01/18 06:32:54;;;;;;;44.30;18.70;;;2.20;99.90;;;;;;5007045;28;20046;-72
2021/01/18 06:35:29;;;;;;;40.07;16.17;;;2.30;99.90;;;;;;5005442;28;20049;-71
2021/01/18 06:38:01;;;;;;;37.20;17.30;;;2.40;99.90;;;;;;5007994;28;20057;-71
2021/01/18 06:40:36;;;;;;;35.20;16.27;;;2.30;99.90;;;;;;5007677;28;20046;-72
2021/01/18 06:43:04;;;;;;;41.47;18.50;;;2.30;99.90;;;;;;5005080;28;20053;-71
2021/01/18 06:45:32;;;;;;;38.47;16.97;;;2.20;99.90;;;;;;5006440;28;20042;-72
2021/01/18 06:48:00;;;;;;;38.53;16.77;;;2.30;99.90;;;;;;5009529;28;20045;-71
2021/01/18 06:50:30;;;;;;;39.83;15.60;;;2.30;99.90;;;;;;5021819;28;20531;-72
2021/01/18 06:52:56;;;;;;;33.13;14.37;;;2.30;99.90;;;;;;5018829;28;20046;-71
2021/01/18 06:55:26;;;;;;;40.27;15.90;;;2.30;99.90;;;;;;5023773;28;20045;-72
2021/01/18 06:58:31;;;;;;;38.90;16.87;;;2.30;99.90;;;;;;5022838;28;20046;-71
2021/01/18 07:00:59;;;;;;;38.17;17.40;;;2.20;99.90;;;;;;4996739;28;20045;-71
2021/01/18 07:03:41;;;;;;;39.13;17.57;;;2.20;99.90;;;;;;5006572;28;20046;-71
2021/01/18 07:06:29;;;;;;;31.50;14.23;;;2.10;99.90;;;;;;5006962;28;20046;-71
2021/01/18 07:08:58;;;;;;;32.23;13.77;;;2.00;99.90;;;;;;5007013;28;20100;-72
2021/01/18 07:11:25;;;;;;;32.13;14.30;;;2.00;99.90;;;;;;5007355;28;20130;-72
2021/01/18 07:13:53;;;;;;;36.97;15.00;;;2.10;99.90;;;;;;5005960;28;20046;-71
2021/01/18 07:16:21;;;;;;;30.93;13.67;;;2.20;99.90;;;;;;5007117;28;20049;-71
2021/01/18 07:18:56;;;;;;;30.13;13.70;;;2.20;99.90;;;;;;5014196;28;20041;-71
2021/01/18 07:21:26;;;;;;;31.43;13.57;;;2.50;99.90;;;;;;5013276;28;20049;-71
2021/01/18 07:24:00;;;;;;;27.63;12.77;;;2.50;99.90;;;;;;5007731;28;20042;-71
2021/01/18 07:26:53;;;;;;;24.97;11.40;;;2.60;99.90;;;;;;5005747;28;20050;-71
2021/01/18 07:29:23;;;;;;;28.17;12.13;;;2.50;99.90;;;;;;5007237;28;20057;-72
2021/01/18 07:31:52;;;;;;;28.63;12.97;;;2.50;99.90;;;;;;5006662;28;20046;-71
2021/01/18 07:34:20;;;;;;;30.73;13.33;;;2.50;99.90;;;;;;5006108;28;20050;-71
2021/01/18 07:36:48;;;;;;;30.50;12.77;;;2.60;99.90;;;;;;5009499;28;20053;-71
2021/01/18 07:39:25;;;;;;;29.73;12.60;;;2.60;99.90;;;;;;5012725;28;20410;-72
2021/01/18 07:41:52;;;;;;;25.53;11.27;;;2.60;99.90;;;;;;5010651;28;20108;-71
2021/01/18 07:44:35;;;;;;;22.80;10.10;;;2.60;99.90;;;;;;5010158;28;20056;-72
2021/01/18 07:47:04;;;;;;;25.27;12.30;;;2.70;99.90;;;;;;5028538;28;20038;-72
2021/01/18 07:49:41;;;;;;;26.20;11.70;;;2.50;99.90;;;;;;5015408;28;20046;-71
2021/01/18 07:52:30;;;;;;;24.37;12.70;;;2.60;99.90;;;;;;5010474;28;20073;-73
2021/01/18 07:55:00;;;;;;;32.70;12.70;;;2.60;99.90;;;;;;5010884;28;20042;-72
2021/01/18 07:57:28;;;;;;;27.50;12.50;;;2.50;99.90;;;;;;5012443;28;20117;-72
2021/01/18 08:00:31;;;;;;;30.73;13.03;;;2.50;99.90;;;;;;5013416;28;20338;-72
2021/01/18 08:03:26;;;;;;;33.07;13.60;;;2.50;99.90;;;;;;5016614;28;20053;-74
2021/01/18 08:06:03;;;;;;;28.00;12.17;;;2.50;99.90;;;;;;5014694;28;20053;-72
2021/01/18 08:08:30;;;;;;;34.60;14.23;;;2.50;99.90;;;;;;5010211;28;20050;-72
2021/01/18 08:10:59;;;;;;;32.77;13.97;;;2.60;99.90;;;;;;5009630;28;20041;-72
2021/01/18 08:13:46;;;;;;;28.00;13.30;;;2.60;99.90;;;;;;5012506;28;20519;-72
2021/01/18 08:16:19;;;;;;;33.33;12.93;;;2.80;99.90;;;;;;5008738;28;20108;-72
2021/01/18 08:18:54;;;;;;;26.27;12.40;;;2.90;99.90;;;;;;5009900;28;20042;-72
2021/01/18 08:21:57;;;;;;;29.07;12.33;;;2.80;99.90;;;;;;5006912;28;20072;-73
2021/01/18 08:24:50;;;;;;;26.30;12.60;;;2.90;99.90;;;;;;5007606;28;20042;-72
2021/01/18 08:27:33;;;;;;;28.57;12.57;;;3.10;99.90;;;;;;5006390;28;20125;-72
2021/01/18 08:30:00;;;;;;;21.10;9.70;;;3.00;99.90;;;;;;5009418;28;20042;-71
2021/01/18 08:32:52;;;;;;;24.13;10.47;;;3.00;99.90;;;;;;5009232;28;20080;-71
2021/01/18 08:35:29;;;;;;;29.33;11.70;;;3.00;99.90;;;;;;5007797;28;20052;-73
2021/01/18 08:37:59;;;;;;;28.43;11.23;;;3.00;99.90;;;;;;5007063;28;20060;-71
2021/01/18 08:40:48;;;;;;;22.60;10.03;;;3.00;99.90;;;;;;5010385;28;20117;-71
2021/01/18 08:43:17;;;;;;;21.07;9.97;;;3.00;99.90;;;;;;4999292;28;20146;-71
2021/01/18 08:45:46;;;;;;;25.60;9.63;;;3.00;99.90;;;;;;5002812;28;20515;-71
2021/01/18 08:48:15;;;;;;;24.07;10.13;;;2.90;99.90;;;;;;5007973;28;20120;-71
2021/01/18 08:50:45;;;;;;;23.00;9.73;;;2.90;99.90;;;;;;5008621;28;20046;-71
2021/01/18 08:53:30;;;;;;;19.57;10.60;;;3.00;99.90;;;;;;5002974;28;20100;-71
2021/01/18 08:56:01;;;;;;;22.07;10.93;;;3.00;99.90;;;;;;5009320;28;20085;-71
2021/01/18 08:58:33;;;;;;;19.37;9.27;;;2.90;99.90;;;;;;5010284;28;20141;-71
2021/01/18 09:01:01;;;;;;;25.67;10.83;;;3.00;99.90;;;;;;5007506;28;20053;-71
2021/01/18 09:03:28;;;;;;;21.83;10.67;;;2.90;99.90;;;;;;5008504;28;20046;-71
2021/01/18 09:05:56;;;;;;;17.83;9.67;;;2.90;99.90;;;;;;5006961;28;20060;-70
2021/01/18 09:08:23;;;;;;;21.67;9.97;;;2.90;99.90;;;;;;5007188;28;20061;-71
2021/01/18 09:10:58;;;;;;;24.90;10.93;;;3.00;99.90;;;;;;4990720;28;20082;-71
2021/01/18 09:13:26;;;;;;;22.17;9.87;;;3.10;99.90;;;;;;4990964;28;20432;-71
2021/01/18 09:15:58;;;;;;;21.23;9.77;;;3.10;99.90;;;;;;5007874;28;20054;-70
2021/01/18 09:18:26;;;;;;;19.53;10.70;;;3.20;99.90;;;;;;5020762;28;20191;-70
2021/01/18 09:20:56;;;;;;;21.03;10.73;;;3.30;99.90;;;;;;5008774;28;20099;-70
2021/01/18 09:23:25;;;;;;;21.13;9.87;;;3.10;99.90;;;;;;5002849;28;20052;-68
2021/01/18 09:26:01;;;;;;;18.40;9.53;;;3.10;99.90;;;;;;5005308;28;20077;-69
2021/01/18 09:28:29;;;;;;;20.60;10.18;;;3.30;99.90;;;;;;5005310;28;20065;-69
2021/01/18 09:30:56;;;;;;;18.30;9.37;;;3.40;99.90;;;;;;5008538;28;20054;-71
2021/01/18 09:33:28;;;;;;;20.87;10.83;;;3.40;99.90;;;;;;5007371;28;20060;-69
2021/01/18 09:35:55;;;;;;;19.27;9.70;;;3.30;99.90;;;;;;5008599;28;20061;-69
2021/01/18 09:38:22;;;;;;;22.63;10.20;;;3.30;99.90;;;;;;5008687;28;20072;-71
2021/01/18 09:40:49;;;;;;;23.93;10.87;;;3.30;99.90;;;;;;5009001;28;20653;-71
2021/01/18 09:43:20;;;;;;;22.03;10.10;;;3.30;99.90;;;;;;5008038;28;20048;-71
2021/01/18 09:45:53;;;;;;;22.63;10.23;;;3.40;99.90;;;;;;5014709;28;20073;-71
2021/01/18 09:48:24;;;;;;;21.63;10.17;;;3.30;99.90;;;;;;5016779;28;20081;-72
2021/01/18 09:50:59;;;;;;;22.23;10.17;;;3.40;99.90;;;;;;5008661;28;20104;-73
2021/01/18 09:53:26;;;;;;;22.00;11.00;;;3.40;99.90;;;;;;5008047;28;20500;-71
2021/01/18 09:55:55;;;;;;;19.67;8.73;;;3.40;99.90;;;;;;5008497;28;20052;-71
2021/01/18 09:58:31;;;;;;;26.10;12.13;;;3.60;99.90;;;;;;5009071;28;20046;-71
2021/01/18 10:01:00;;;;;;;20.40;8.43;;;3.50;99.90;;;;;;5008506;28;20049;-71
2021/01/18 10:03:29;;;;;;;22.00;10.53;;;3.70;99.90;;;;;;5007551;28;20054;-75
2021/01/18 10:06:07;;;;;;;17.37;8.23;;;3.70;99.90;;;;;;5008563;28;20056;-71
2021/01/18 10:08:36;;;;;;;20.23;8.27;;;3.90;99.90;;;;;;5008808;28;20459;-71
2021/01/18 10:11:03;;;;;;;18.10;8.70;;;4.10;99.90;;;;;;5006200;28;20046;-71
2021/01/18 10:13:30;;;;;;;16.40;7.80;;;4.10;99.90;;;;;;5007537;28;20050;-74
2021/01/18 10:16:06;;;;;;;21.03;8.73;;;4.00;99.90;;;;;;5005991;28;20046;-72
2021/01/18 10:18:37;;;;;;;21.67;8.85;;;4.00;99.90;;;;;;5009227;28;20057;-72
2021/01/18 10:21:05;;;;;;;18.27;8.43;;;3.90;99.90;;;;;;5006112;28;20219;-71
2021/01/18 10:23:33;;;;;;;16.73;8.20;;;4.10;99.90;;;;;;5005863;28;20389;-76
2021/01/18 10:26:21;;;;;;;18.17;8.13;;;4.10;99.90;;;;;;5006875;28;20050;-71
2021/01/18 10:28:51;;;;;;;;;;;4.10;99.90;;;;;;5005490;28;20046;-71
2021/01/18 10:31:19;;;;;;;17.43;7.47;;;4.00;99.90;;;;;;4999086;28;19925;-72
2021/01/18 10:33:45;;;;;;;19.60;8.17;;;4.00;99.90;;;;;;4997859;28;20068;-76
2021/01/18 10:36:34;;;;;;;13.33;7.27;;;4.00;99.90;;;;;;4996117;28;20057;-72
2021/01/18 10:39:00;;;;;;;18.33;7.80;;;4.00;99.90;;;;;;5025777;28;20049;-75
2021/01/18 10:41:32;;;;;;;17.77;7.60;;;4.00;99.90;;;;;;5024388;28;20049;-71
2021/01/18 10:44:04;;;;;;;20.13;8.87;;;4.00;99.90;;;;;;5009055;28;20057;-71
2021/01/18 10:46:31;;;;;;;13.57;6.93;;;4.00;99.90;;;;;;5015449;28;20576;-75
2021/01/18 10:48:58;;;;;;;17.90;7.23;;;4.10;99.90;;;;;;5006661;28;20050;-72
2021/01/18 10:51:25;;;;;;;17.43;8.10;;;4.00;99.90;;;;;;5006397;28;20064;-74
2021/01/18 10:53:57;;;;;;;14.17;7.53;;;4.10;99.90;;;;;;5006987;28;20050;-72
2021/01/18 10:56:31;;;;;;;14.83;7.03;;;4.20;99.90;;;;;;5006437;28;20054;-71
2021/01/18 10:58:58;;;;;;;15.60;7.73;;;4.20;99.90;;;;;;5006364;28;20136;-71
2021/01/18 11:01:25;;;;;;;14.50;6.40;;;4.10;99.90;;;;;;5006945;28;20046;-74
2021/01/18 11:03:52;;;;;;;15.43;7.70;;;4.00;99.90;;;;;;5004643;28;20074;-72
2021/01/18 11:06:20;;;;;;;15.77;6.73;;;3.90;99.90;;;;;;5006497;28;20049;-72
2021/01/18 11:08:51;;;;;;;17.53;6.60;;;4.10;99.90;;;;;;5006581;28;20061;-75
2021/01/18 11:11:20;;;;;;;16.60;7.17;;;4.00;99.90;;;;;;5006534;28;20559;-75
2021/01/18 11:13:46;;;;;;;15.60;6.97;;;4.10;99.90;;;;;;5008812;28;20075;-74
2021/01/18 11:16:15;;;;;;;13.43;7.10;;;4.30;99.90;;;;;;5016150;28;20099;-71
2021/01/18 11:18:43;;;;;;;14.37;6.60;;;4.20;99.90;;;;;;5009906;28;20069;-71
2021/01/18 11:21:10;;;;;;;13.73;6.77;;;4.10;99.90;;;;;;5010249;28;20225;-71
2021/01/18 11:23:37;;;;;;;15.73;6.73;;;4.00;99.90;;;;;;5009134;28;20060;-69
2021/01/18 11:26:05;;;;;;;15.97;6.53;;;4.10;99.90;;;;;;5009555;28;20057;-69
2021/01/18 11:28:33;;;;;;;13.77;6.63;;;3.90;99.90;;;;;;5009533;28;20419;-70
2021/01/18 11:31:00;;;;;;;14.37;5.87;;;3.80;99.90;;;;;;5009058;28;20058;-69
2021/01/18 11:33:27;;;;;;;15.23;6.60;;;3.70;99.90;;;;;;5008957;28;20501;-69
2021/01/18 11:35:54;;;;;;;18.90;7.10;;;3.70;99.90;;;;;;5009544;28;20104;-76
2021/01/18 11:38:20;;;;;;;17.10;6.33;;;3.60;99.90;;;;;;5001125;28;20125;-72
2021/01/18 11:40:47;;;;;;;17.40;7.27;;;3.60;99.90;;;;;;4996973;28;20042;-77
2021/01/18 11:43:14;;;;;;;15.73;7.20;;;3.60;99.90;;;;;;4999278;28;20105;-75
2021/01/18 11:45:41;;;;;;;15.80;6.93;;;3.60;99.90;;;;;;5003350;28;20053;-75
2021/01/18 11:48:08;;;;;;;16.23;6.67;;;3.70;99.90;;;;;;5009261;28;20058;-71
2021/01/18 11:50:34;;;;;;;21.83;9.10;;;3.70;99.90;;;;;;5009497;28;20050;-71
2021/01/18 11:53:01;;;;;;;15.90;7.00;;;3.70;99.90;;;;;;5008836;28;20085;-74
2021/01/18 11:55:28;;;;;;;16.33;6.60;;;3.50;99.90;;;;;;5009604;28;20462;-72
2021/01/18 11:57:54;;;;;;;18.20;7.50;;;3.60;99.90;;;;;;5015619;28;20053;-72
2021/01/18 12:00:24;;;;;;;15.13;7.17;;;3.50;99.90;;;;;;5017281;28;20387;-74
2021/01/18 12:02:55;;;;;;;13.47;7.10;;;3.50;99.90;;;;;;5015560;28;20111;-71
2021/01/18 12:05:25;;;;;;;15.77;6.47;;;3.60;99.90;;;;;;5010173;28;20050;-74
2021/01/18 12:07:52;;;;;;;16.47;6.60;;;3.70;99.90;;;;;;5009555;28;20058;-76
2021/01/18 12:10:18;;;;;;;15.10;6.53;;;3.60;99.90;;;;;;5008856;28;20057;-74
2021/01/18 12:12:45;;;;;;;14.67;6.73;;;3.60;99.90;;;;;;5008159;28;20060;-71
2021/01/18 12:15:12;;;;;;;15.13;6.33;;;3.70;99.90;;;;;;5011468;28;20053;-75
2021/01/18 12:17:40;;;;;;;15.87;6.93;;;3.90;99.90;;;;;;5014608;28;20046;-73
2021/01/18 12:20:09;;;;;;;16.43;6.70;;;3.80;99.90;;;;;;5009246;28;20060;-73
2021/01/18 12:22:36;;;;;;;17.70;9.20;;;3.70;99.90;;;;;;5001477;28;20171;-74
2021/01/18 12:25:03;;;;;;;19.17;7.93;;;3.60;99.90;;;;;;5009581;28;20393;-71
2021/01/18 12:27:29;;;;;;;17.50;8.07;;;3.70;99.90;;;;;;5008561;28;20053;-75
2021/01/18 12:29:56;;;;;;;14.77;6.97;;;3.70;99.90;;;;;;5009008;28;20050;-73
2021/01/18 12:32:23;;;;;;;19.53;7.70;;;3.70;99.90;;;;;;5007510;28;20173;-71
2021/01/18 12:34:49;;;;;;;18.83;7.10;;;3.60;99.90;;;;;;5008887;28;20046;-71
2021/01/18 12:37:19;;;;;;;21.77;8.47;;;3.70;99.90;;;;;;5008846;28;20045;-76
2021/01/18 12:39:46;;;;;;;17.50;8.33;;;3.60;99.90;;;;;;5009238;28;20058;-74
2021/01/18 12:42:12;;;;;;;21.47;8.53;;;3.60;99.90;;;;;;5007894;28;20412;-75
2021/01/18 12:44:39;;;;;;;18.03;7.03;;;3.60;99.90;;;;;;5008018;28;20076;-72
2021/01/18 12:47:07;;;;;;;14.17;7.20;;;3.60;99.90;;;;;;5006761;28;20183;-76
2021/01/18 12:49:34;;;;;;;20.13;7.50;;;3.50;99.90;;;;;;5008648;28;20045;-75
2021/01/18 12:52:01;;;;;;;23.30;7.97;;;3.50;99.90;;;;;;5008178;28;20681;-73
2021/01/18 12:54:29;;;;;;;19.03;8.30;;;3.60;99.90;;;;;;5007987;28;20116;-72
2021/01/18 12:56:56;;;;;;;17.37;7.90;;;3.60;99.90;;;;;;5009187;28;20393;-76
2021/01/18 12:59:22;;;;;;;16.03;6.67;;;3.50;99.90;;;;;;5008986;28;20053;-71